Flight Track Log - Related Links

Times and Time Zones

All times are in EDT time to prevent confusion due to time zone crossing. See the RPA3457 flight status page for this flight to view local times or setup timezone preferences in your user account.

Time Position Orientation Groundspeed Altitude Reporting Facility
EDT Latitude Longitude Course Direction KTS MPH feet Rate Location/Type
Sat 11:08:07 AM 38.8833 -77.0500 233° Southwest 149 171 1,800  Level Potomac TRACON
Sat 11:10:00 AM 38.6157 -77.3010 218° Southwest  Level FlightAware Approximate
Sat 11:10:03 AM 38.9428 -77.1531 307° West 210 242 6,300  Level Washington Center
Sat 11:11:00 AM 38.5312 -77.3861 225° Southwest  Level FlightAware Approximate
Sat 11:11:03 AM 38.8817 -77.1997 211° Southwest 151 174 9,400  Level Washington Center
Sat 11:12:00 AM 38.4554 -77.4836 225° Southwest  Level FlightAware Approximate
Sat 11:13:00 AM 38.3732 -77.5670 233° Southwest  Level FlightAware Approximate
Sat 11:13:03 AM 38.7533 -77.2900 209° Southwest 238 274 15,000  Level Washington Center
Sat 11:14:03 AM 38.6858 -77.3442 212° Southwest 274 315 17,500 2,300 Climbing Washington Center
Sat 11:15:03 AM 38.6183 -77.3958 211° Southwest 294 338 19,600 1,750 Climbing Washington Center
Sat 11:16:03 AM 38.5489 -77.4525 213° Southwest 299 344 21,000 900 Climbing Washington Center
Sat 11:17:03 AM 38.4811 -77.5067 212° Southwest 299 344 21,400 1,400 Climbing Washington Center
Sat 11:18:03 AM 38.4156 -77.5739 219° Southwest 299 344 23,800 2,300 Climbing Washington Center
Sat 11:19:03 AM 38.3561 -77.6358 219° Southwest 293 337 26,000 1,800 Climbing Washington Center
Sat 11:20:03 AM 38.2967 -77.7003 220° Southwest 288 331 27,400 1,250 Climbing Washington Center
Sat 11:21:03 AM 38.2369 -77.7619 219° Southwest 282 325 28,500 1,100 Climbing Washington Center
Sat 11:22:03 AM 38.1753 -77.8289 220° Southwest 282 325 29,600 1,100 Climbing Washington Center
Sat 11:23:03 AM 38.1117 -77.8956 220° Southwest 288 331 30,700 950 Climbing Washington Center
Sat 11:24:03 AM 38.0478 -77.9622 219° Southwest 298 343 31,500 645 Climbing Washington Center
Sat 11:25:04 AM 37.9817 -78.0261 217° Southwest 298 343 32,000 250 Climbing Washington Center
Sat 11:26:03 AM 37.9156 -78.0950 219° Southwest 308 354 32,000  Level Washington Center
Sat 11:27:03 AM 37.8494 -78.1639 219° Southwest 308 354 32,000  Level Washington Center
Sat 11:28:03 AM 37.7919 -78.2275 221° Southwest 308 354 32,000  Level Washington Center
Sat 11:29:03 AM 37.7192 -78.3064 221° Southwest 308 354 32,000 500 Level Washington Center
Sat 11:30:03 AM 37.6508 -78.3722 217° Southwest 308 354 33,000 900 Climbing Washington Center
Sat 11:31:03 AM 37.5847 -78.4406 219° Southwest 308 354 33,800 1,100 Climbing Washington Center
Sat 11:32:03 AM 37.5225 -78.5064 220° Southwest 308 354 35,200 1,100 Climbing Washington Center
Sat 11:33:03 AM 37.4628 -78.5642 218° Southwest 296 341 36,000 400 Climbing Washington Center
Sat 11:34:03 AM 37.4092 -78.6194 219° Southwest 290 334 36,000  Level Washington Center
Sat 11:35:03 AM 37.3450 -78.6850 219° Southwest 290 334 36,000  Level Washington Center
Sat 11:36:03 AM 37.2764 -78.7525 218° Southwest 296 341 36,000  Level Washington Center
Sat 11:37:03 AM 37.2078 -78.8228 219° Southwest 310 357 36,000  Level Washington Center
Sat 11:38:03 AM 37.1392 -78.8928 219° Southwest 315 362 36,000  Level Washington Center
Sat 11:39:03 AM 37.0642 -78.9678 219° Southwest 320 368 36,000  Level Washington Center
Sat 11:40:03 AM 36.9953 -79.0375 219° Southwest 320 368 36,000  Level Washington Center
Sat 11:41:03 AM 36.9264 -79.1072 219° Southwest 320 368 36,000  Level Washington Center
Sat 11:42:03 AM 36.8558 -79.1742 217° Southwest 325 374 36,000  Level Washington Center
Sat 11:43:03 AM 36.7889 -79.2411 219° Southwest 325 374 36,000  Level Washington Center
Sat 11:44:03 AM 36.7267 -79.3031 219° Southwest 325 374 36,000  Level Washington Center
Sat 11:45:03 AM 36.6578 -79.3722 219° Southwest 325 374 36,000  Level Washington Center
Sat 11:47:05 AM 36.5169 -79.5078 218° Southwest 327 376 36,000  Level Atlanta Center
Sat 11:48:05 AM 36.4406 -79.5844 219° Southwest 327 376 36,000  Level Atlanta Center
Sat 11:49:05 AM 36.3700 -79.6528 218° Southwest 327 376 36,000  Level Atlanta Center
Sat 11:50:05 AM 36.3036 -79.7208 220° Southwest 327 376 36,000  Level Atlanta Center
Sat 11:51:05 AM 36.2331 -79.7917 219° Southwest 327 376 36,000  Level Atlanta Center
Sat 11:52:05 AM 36.1703 -79.8514 218° Southwest 327 376 36,000  Level Atlanta Center
Sat 11:53:05 AM 36.0997 -79.9167 217° Southwest 327 376 36,000  Level Atlanta Center
Sat 11:54:05 AM 36.0267 -79.9822 216° Southwest 333 383 36,000  Level Atlanta Center
Sat 11:55:05 AM 35.9447 -80.0247 203° Southwest 328 377 36,000  Level Atlanta Center
Sat 11:56:05 AM 35.8503 -80.0703 201° Southwest 328 377 36,000  Level Atlanta Center
Sat 11:57:05 AM 35.7681 -80.1128 203° Southwest 328 377 36,000  Level Atlanta Center
Sat 11:58:05 AM 35.6839 -80.1550 202° Southwest 328 377 36,000  Level Atlanta Center
Sat 11:59:05 AM 35.6081 -80.1969 204° Southwest 335 386 36,000  Level Atlanta Center
Sat 12:00:05 PM 35.5239 -80.2392 202° Southwest 334 384 36,000  Level Atlanta Center
Sat 12:01:05 PM 35.4397 -80.2814 202° Southwest 334 384 36,000  Level Atlanta Center
Sat 12:02:05 PM 35.3472 -80.3289 203° Southwest 329 379 36,000  Level Atlanta Center
Sat 12:03:05 PM 35.2608 -80.3708 202° Southwest 329 379 36,000  Level Atlanta Center
Sat 12:04:05 PM 35.1744 -80.4128 202° Southwest 329 379 36,000  Level Atlanta Center
Sat 12:05:56 PM 35.0172 -80.4922 202° Southwest 340 391 36,000  Level Jacksonville Center
Sat 12:06:56 PM 34.9303 -80.5328 201° Southwest 340 391 36,000  Level Jacksonville Center
Sat 12:07:56 PM 34.8458 -80.5756 203° Southwest 335 386 36,000  Level Jacksonville Center
Sat 12:08:56 PM 34.7733 -80.6153 204° Southwest 324 373 36,000  Level Jacksonville Center
Sat 12:09:56 PM 34.6867 -80.6581 202° Southwest 324 373 36,000  Level Jacksonville Center
Sat 12:10:56 PM 34.5975 -80.6983 200° South 336 387 36,000  Level Jacksonville Center
Sat 12:11:56 PM 34.5128 -80.7408 202° Southwest 346 398 36,000  Level Jacksonville Center
Sat 12:12:56 PM 34.4239 -80.7881 204° Southwest 346 398 36,000  Level Jacksonville Center
Sat 12:13:56 PM 34.3392 -80.8281 201° Southwest 346 398 36,000  Level Jacksonville Center
Sat 12:14:56 PM 34.2603 -80.8650 201° Southwest 334 384 36,000  Level Jacksonville Center
Sat 12:15:56 PM 34.1756 -80.9047 201° Southwest 327 376 36,000  Level Jacksonville Center
Sat 12:16:56 PM 34.0883 -80.9442 201° Southwest 332 382 36,000  Level Jacksonville Center
Sat 12:17:56 PM 33.9994 -80.9889 203° Southwest 332 382 36,000  Level Jacksonville Center
Sat 12:18:56 PM 33.9042 -81.0333 201° Southwest 337 388 36,000  Level Jacksonville Center
Sat 12:19:56 PM 33.8150 -81.0753 201° Southwest 337 388 36,000  Level Jacksonville Center
Sat 12:20:56 PM 33.7383 -81.1169 204° Southwest 337 388 36,000  Level Jacksonville Center
Sat 12:21:56 PM 33.6533 -81.1583 202° Southwest 337 388 36,000  Level Jacksonville Center
Sat 12:22:56 PM 33.5642 -81.2000 201° Southwest 337 388 36,000  Level Jacksonville Center
Sat 12:23:56 PM 33.4750 -81.2467 204° Southwest 337 388 36,000  Level Jacksonville Center
Sat 12:24:56 PM 33.3881 -81.2881 202° Southwest 337 388 36,000  Level Jacksonville Center
Sat 12:25:56 PM 33.2989 -81.3344 204° Southwest 344 396 36,000  Level Jacksonville Center
Sat 12:26:56 PM 33.2136 -81.3756 202° Southwest 344 396 36,000  Level Jacksonville Center
Sat 12:27:56 PM 33.1225 -81.4192 202° Southwest 344 396 36,000  Level Jacksonville Center
Sat 12:28:56 PM 33.0353 -81.4603 202° Southwest 344 396 36,000  Level Jacksonville Center
Sat 12:29:56 PM 32.9417 -81.5064 202° Southwest 351 404 36,000  Level Jacksonville Center
Sat 12:30:56 PM 32.8547 -81.5497 203° Southwest 351 404 36,000  Level Jacksonville Center
Sat 12:31:56 PM 32.7633 -81.5931 202° Southwest 351 404 36,000  Level Jacksonville Center
Sat 12:32:56 PM 32.6758 -81.6364 203° Southwest 351 404 36,000  Level Jacksonville Center
Sat 12:33:56 PM 32.5761 -81.6847 202° Southwest 351 404 36,000  Level Jacksonville Center
Sat 12:34:56 PM 32.4828 -81.7278 201° Southwest 351 404 36,000  Level Jacksonville Center
Sat 12:35:56 PM 32.4017 -81.7681 203° Southwest 351 404 36,000  Level Jacksonville Center
Sat 12:36:56 PM 32.3019 -81.8136 201° Southwest 351 404 36,000  Level Jacksonville Center
Sat 12:37:56 PM 32.2208 -81.8539 203° Southwest 351 404 36,000  Level Jacksonville Center
Sat 12:38:56 PM 32.1189 -81.9017 202° Southwest 351 404 36,000  Level Jacksonville Center
Sat 12:39:56 PM 32.0272 -81.9467 203° Southwest 351 404 36,000  Level Jacksonville Center
Sat 12:40:56 PM 31.9442 -81.9817 200° South 351 404 36,000  Level Jacksonville Center
Sat 12:41:56 PM 31.8378 -82.0244 199° South 356 410 36,000  Level Jacksonville Center
Sat 12:42:56 PM 31.7544 -82.0569 198° South 356 410 36,000  Level Jacksonville Center
Sat 12:43:56 PM 31.6525 -82.0994 200° South 356 410 36,000  Level Jacksonville Center
Sat 12:44:56 PM 31.5567 -82.1392 199° South 372 428 36,000  Level Jacksonville Center
Sat 12:45:56 PM 31.4631 -82.1764 199° South 364 419 36,000 -50 Level Jacksonville Center
Sat 12:46:56 PM 31.3608 -82.1844 184° South 369 425 35,900  Descending Jacksonville Center
Sat 12:47:56 PM 31.2564 -82.2000 187° South 374 430 36,000 50 Climbing Jacksonville Center
Sat 12:48:56 PM 31.1519 -82.2081 184° South 374 430 36,000  Level Jacksonville Center
Sat 12:49:56 PM 31.0581 -82.2208 187° South 380 437 36,000  Level Jacksonville Center
Sat 12:50:56 PM 30.9539 -82.2311 185° South 380 437 36,000  Level Jacksonville Center
Sat 12:51:56 PM 30.8475 -82.2442 186° South 385 443 36,000  Level Jacksonville Center
Sat 12:52:56 PM 30.7431 -82.2592 187° South 385 443 36,000 -50 Level Jacksonville Center
Sat 12:53:56 PM 30.6386 -82.2697 185° South 385 443 35,900  Descending Jacksonville Center
Sat 12:54:56 PM 30.5303 -82.2775 184° South 385 443 36,000 50 Climbing Jacksonville Center
Sat 12:55:56 PM 30.4239 -82.2881 185° South 385 443 36,000  Level Jacksonville Center
Sat 12:56:56 PM 30.3172 -82.3031 187° South 385 443 36,000  Level Jacksonville Center
Sat 12:57:56 PM 30.2108 -82.3156 186° South 385 443 36,000 300 Level Jacksonville Center
Sat 12:58:56 PM 30.1025 -82.3236 184° South 390 449 36,600 500 Climbing Jacksonville Center
Sat 12:59:56 PM 29.9939 -82.3289 182° South 390 449 37,000 200 Climbing Jacksonville Center
Sat 01:00:56 PM 29.8833 -82.3319 181° South 390 449 37,000  Level Jacksonville Center
Sat 01:01:56 PM 29.7706 -82.3350 181° South 402 463 37,000  Level Jacksonville Center
Sat 01:02:56 PM 29.6597 -82.3333 179° South 402 463 37,000  Level Jacksonville Center
Sat 01:03:56 PM 29.5450 -82.3339 180° South 402 463 37,000  Level Jacksonville Center
Sat 01:04:56 PM 29.4344 -82.3369 181° South 402 463 37,000  Level Jacksonville Center
Sat 01:05:56 PM 29.3217 -82.3400 181° South 402 463 37,000  Level Jacksonville Center
Sat 01:06:56 PM 29.2069 -82.3456 182° South 402 463 37,000  Level Jacksonville Center
Sat 01:07:56 PM 29.0942 -82.3461 180° South 402 463 37,000  Level Jacksonville Center
Sat 01:08:56 PM 28.9814 -82.3467 180° South 402 463 37,000  Level Jacksonville Center
Sat 01:09:56 PM 28.8667 -82.3519 182° South 407 468 37,000  Level Jacksonville Center
Sat 01:10:56 PM 28.7519 -82.3503 179° South 412 474 37,000  Level Jacksonville Center
Sat 01:11:56 PM 28.6289 -82.3581 183° South 412 474 37,000  Level Jacksonville Center
Sat 01:12:56 PM 28.5139 -82.3586 180° South 407 468 37,000  Level Jacksonville Center
Sat 01:13:56 PM 28.4014 -82.3617 181° South 407 468 37,000  Level Jacksonville Center
Sat 01:16:16 PM 28.1408 -82.3633 180° South 430 495 37,000  Level Miami Center
Sat 01:17:16 PM 28.0197 -82.3644 180° South 423 487 37,000  Level Miami Center
Sat 01:18:16 PM 27.9003 -82.3281 165° South 423 487 37,000  Level Miami Center
Sat 01:19:16 PM 27.7664 -82.2819 163° South 441 507 37,000  Level Miami Center
Sat 01:20:16 PM 27.6450 -82.2386 162° South 454 522 37,000  Level Miami Center
Sat 01:21:16 PM 27.5358 -82.2008 163° South 454 522 37,000  Level Miami Center
Sat 01:22:16 PM 27.4142 -82.1600 163° South 454 522 37,000  Level Miami Center
Sat 01:23:16 PM 27.2800 -82.1142 163° South 454 522 37,000  Level Miami Center
Sat 01:24:16 PM 27.1586 -82.0714 163° South 454 522 37,000  Level Miami Center
Sat 01:25:16 PM 27.0450 -82.0336 164° South 462 532 37,000  Level Miami Center
Sat 01:26:16 PM 26.9233 -81.9908 163° South 468 539 37,000  Level Miami Center
Sat 01:27:16 PM 26.7975 -81.9528 165° South 468 539 37,000 -350 Level Miami Center
Sat 01:28:16 PM 26.6758 -81.9081 162° South 473 544 36,300 -850 Descending Miami Center
Sat 01:29:16 PM 26.5583 -81.8706 164° South 460 529 35,300 -1,000 Descending Miami Center
Sat 01:30:16 PM 26.4469 -81.8308 162° South 437 503 34,300 -950 Descending Miami Center
Sat 01:31:16 PM 26.3356 -81.7914 162° South 425 489 33,400 -950 Descending Miami Center
Sat 01:32:16 PM 26.2197 -81.7519 163° South 430 495 32,400 -1,000 Descending Miami Center
Sat 01:33:16 PM 26.1042 -81.7147 164° South 430 495 31,400 -1,000 Descending Miami Center
Sat 01:34:16 PM 25.9886 -81.6756 163° South 430 495 30,400 -1,000 Descending Miami Center
Sat 01:35:16 PM 25.8747 -81.6408 165° South 430 495 29,400 -1,000 Descending Miami Center
Sat 01:36:16 PM 25.7675 -81.6044 163° South 419 482 28,400 -1,000 Descending Miami Center
Sat 01:37:16 PM 25.6597 -81.5747 166° South 412 474 27,400 -1,100 Descending Miami Center
Sat 01:38:16 PM 25.5456 -81.5542 171° South 412 474 26,200 -1,900 Descending Miami Center
Sat 01:39:16 PM 25.4272 -81.5336 171° South 418 481 23,600 -2,900 Descending Miami Center
Sat 01:40:16 PM 25.3214 -81.5156 171° South 412 474 20,400 -3,400 Descending Miami Center
Sat 01:41:16 PM 25.1986 -81.4994 173° South 402 463 16,800 -3,550 Descending Miami Center
Sat 01:42:16 PM 25.0953 -81.5322 196° South 395 455 13,300 -3,150 Descending Miami Center
Sat 01:43:16 PM 25.0000 -81.5744 202° Southwest 382 440 10,500 -1,700 Descending Miami Center
Sat 01:44:16 PM 24.9172 -81.6103 201° Southwest 351 404 9,900 -250 Descending Miami Center
Sat 01:45:16 PM 24.8389 -81.6439 201° Southwest 326 375 10,000  Climbing Miami Center
Sat 01:46:16 PM 24.7733 -81.6711 201° Southwest 292 336 9,900 -950 Descending Miami Center
Sat 01:47:16 PM 24.7036 -81.7003 201° Southwest 287 330 8,100 -1,700 Descending Miami Center
Sat 01:48:16 PM 24.6294 -81.7317 201° Southwest 282 325 6,500 -1,650 Descending Miami Center
Sat 01:49:16 PM 24.5633 -81.7725 209° Southwest 282 325 4,800 -1,700 Descending Miami Center
Sat 01:50:16 PM 24.4906 -81.7650 175° South 261 300 3,100 -1,700 Descending Miami Center
Sat 01:52:00 PM 24.5500 -81.7500 North  Level FlightAware Approximate

Login

Don't have an account? Register now (free) for customized features, flight alerts, and more!